createdAt,value
2023-04-12T00:01:29.704Z,9.43
2023-04-12T00:03:59.403Z,9.40
2023-04-12T00:06:32.497Z,9.30
2023-04-12T00:09:01.831Z,9.80
2023-04-12T00:11:33.058Z,9.60
2023-04-12T00:14:02.113Z,10.00
2023-04-12T00:16:32.893Z,10.20
2023-04-12T00:19:03.672Z,9.70
2023-04-12T00:21:33.002Z,10.17
2023-04-12T00:24:02.352Z,9.43
2023-04-12T00:26:31.573Z,9.40
2023-04-12T00:29:01.307Z,9.33
2023-04-12T00:31:32.536Z,9.60
2023-04-12T00:34:04.434Z,9.60
2023-04-12T00:36:33.912Z,9.97
2023-04-12T00:39:03.049Z,9.90
2023-04-12T00:41:32.216Z,9.70
2023-04-12T00:44:01.067Z,9.57
2023-04-12T00:46:30.462Z,9.40
2023-04-12T00:49:01.566Z,9.63
2023-04-12T00:51:33.515Z,9.63
2023-04-12T00:54:02.805Z,9.73
2023-04-12T00:56:32.855Z,9.77
2023-04-12T00:59:02.272Z,10.20
2023-04-12T01:01:31.945Z,9.40
2023-04-12T01:04:04.758Z,9.33
2023-04-12T01:06:44.691Z,9.83
2023-04-12T01:09:21.627Z,9.40
2023-04-12T01:11:59.446Z,9.77
2023-04-12T01:14:39.861Z,9.63
2023-04-12T01:17:14.558Z,9.40
2023-04-12T01:19:57.882Z,9.67
2023-04-12T01:22:49.133Z,9.03
2023-04-12T01:25:39.141Z,9.73
2023-04-12T01:28:12.787Z,9.27
2023-04-12T01:30:43.850Z,10.03
2023-04-12T01:33:14.372Z,9.57
2023-04-12T01:35:45.209Z,9.47
2023-04-12T01:38:14.845Z,9.77
2023-04-12T01:40:44.350Z,9.50
2023-04-12T01:43:16.012Z,9.67
2023-04-12T01:45:46.107Z,9.53
2023-04-12T01:48:15.850Z,9.43
2023-04-12T01:50:56.158Z,9.50
2023-04-12T01:53:33.928Z,9.23
2023-04-12T01:56:09.232Z,9.23
2023-04-12T01:58:43.885Z,9.67
2023-04-12T02:01:15.405Z,9.77
2023-04-12T02:03:45.220Z,9.27
2023-04-12T02:06:15.314Z,9.53
2023-04-12T02:08:44.838Z,9.70
2023-04-12T02:11:14.980Z,10.03
2023-04-12T02:13:48.094Z,9.40
2023-04-12T02:16:20.547Z,9.67
2023-04-12T02:18:49.995Z,10.00
2023-04-12T02:21:19.187Z,9.50
2023-04-12T02:23:48.751Z,9.67
2023-04-12T02:26:17.899Z,9.43
2023-04-12T02:28:48.728Z,9.63
2023-04-12T02:31:18.748Z,9.67
2023-04-12T02:33:50.652Z,9.57
2023-04-12T02:36:20.918Z,9.60
2023-04-12T02:38:51.674Z,9.27
2023-04-12T02:41:22.294Z,9.70
2023-04-12T02:43:53.439Z,9.43
2023-04-12T02:46:24.976Z,9.80
2023-04-12T02:48:59.205Z,9.90
2023-04-12T02:51:42.183Z,9.80
2023-04-12T02:54:12.290Z,9.20
2023-04-12T02:56:53.946Z,9.50
2023-04-12T02:59:44.386Z,9.40
2023-04-12T03:02:36.981Z,9.80
2023-04-12T03:05:09.004Z,9.90
2023-04-12T03:07:43.495Z,9.80
2023-04-12T03:10:13.288Z,10.00
2023-04-12T03:12:47.746Z,9.77
2023-04-12T03:15:23.321Z,9.97
2023-04-12T03:17:54.036Z,9.90
2023-04-12T03:20:28.224Z,9.73
2023-04-12T03:23:05.154Z,10.20
2023-04-12T03:25:37.411Z,10.47
2023-04-12T03:28:27.321Z,9.67
2023-04-12T03:30:57.885Z,10.03
2023-04-12T03:33:34.483Z,10.00
2023-04-12T03:36:06.954Z,9.93
2023-04-12T03:38:38.210Z,10.27
2023-04-12T03:41:10.167Z,10.67
2023-04-12T03:43:42.207Z,10.20
2023-04-12T03:46:21.094Z,10.37
2023-04-12T03:48:56.854Z,10.03
2023-04-12T03:51:30.538Z,9.80
2023-04-12T03:54:04.550Z,10.43
2023-04-12T03:56:45.991Z,10.23
2023-04-12T03:59:22.443Z,9.97
2023-04-12T04:01:54.234Z,10.23
2023-04-12T04:04:24.786Z,10.00
2023-04-12T04:06:58.055Z,10.00
2023-04-12T04:09:29.299Z,10.43
2023-04-12T04:11:58.610Z,10.17
2023-04-12T04:14:28.745Z,10.10
2023-04-12T04:16:59.373Z,10.03
2023-04-12T04:19:28.643Z,10.30
2023-04-12T04:21:59.163Z,10.43
2023-04-12T04:24:29.194Z,10.37
2023-04-12T04:27:02.547Z,10.87
2023-04-12T04:29:32.389Z,10.93
2023-04-12T04:32:05.225Z,10.27
2023-04-12T04:34:34.925Z,10.43
2023-04-12T04:37:12.512Z,10.57
2023-04-12T04:39:44.262Z,10.13
2023-04-12T04:42:14.550Z,9.90
2023-04-12T04:45:02.999Z,10.40
2023-04-12T04:47:38.258Z,10.60
2023-04-12T04:50:08.775Z,11.07
2023-04-12T04:52:39.449Z,10.60
2023-04-12T04:55:13.056Z,10.50
2023-04-12T04:57:46.862Z,10.50
2023-04-12T05:00:18.408Z,11.10
2023-04-12T05:02:55.719Z,10.27
2023-04-12T05:05:27.489Z,10.87
2023-04-12T05:08:10.909Z,10.90
2023-04-12T05:10:40.233Z,10.90
2023-04-12T05:13:09.924Z,10.60
2023-04-12T05:15:41.793Z,10.40
2023-04-12T05:18:13.110Z,10.43
2023-04-12T05:20:42.576Z,10.80
2023-04-12T05:23:11.855Z,10.60
2023-04-12T05:25:47.124Z,10.93
2023-04-12T05:28:17.718Z,10.73
2023-04-12T05:30:47.432Z,10.60
2023-04-12T05:33:22.841Z,10.73
2023-04-12T05:35:52.227Z,10.80
2023-04-12T05:38:21.606Z,10.67
2023-04-12T05:40:55.302Z,10.97
2023-04-12T05:43:25.835Z,10.47
2023-04-12T05:45:54.904Z,10.93
2023-04-12T05:48:27.121Z,10.00
2023-04-12T05:50:58.840Z,11.00
2023-04-12T05:53:29.730Z,11.23
2023-04-12T05:56:01.843Z,11.37
2023-04-12T05:58:31.156Z,10.50
2023-04-12T06:01:01.216Z,10.90
2023-04-12T06:03:32.438Z,10.73
2023-04-12T06:06:11.142Z,10.40
2023-04-12T06:08:41.556Z,10.93
2023-04-12T06:11:12.092Z,10.17
2023-04-12T06:13:41.830Z,10.70
2023-04-12T06:16:11.528Z,10.63
2023-04-12T06:18:42.066Z,10.60
2023-04-12T06:21:11.407Z,10.50
2023-04-12T06:23:41.586Z,11.07
2023-04-12T06:26:11.434Z,10.53
2023-04-12T06:28:41.275Z,10.67
2023-04-12T06:31:11.218Z,10.13
2023-04-12T06:33:44.630Z,9.90
2023-04-12T06:36:16.030Z,10.07
2023-04-12T06:38:45.149Z,10.23
2023-04-12T06:41:14.329Z,9.57
2023-04-12T06:43:43.527Z,10.83
2023-04-12T06:46:15.501Z,10.27
2023-04-12T06:48:46.194Z,10.53
2023-04-12T06:51:16.060Z,10.83
2023-04-12T06:53:45.307Z,10.97
2023-04-12T06:56:16.560Z,10.73
2023-04-12T06:58:47.101Z,10.33
2023-04-12T07:01:16.313Z,10.23
2023-04-12T07:03:46.929Z,9.57
2023-04-12T07:06:25.186Z,9.63
2023-04-12T07:08:55.657Z,10.50
2023-04-12T07:11:25.244Z,10.23
2023-04-12T07:13:54.640Z,10.33
2023-04-12T07:16:24.092Z,10.60
2023-04-12T07:18:54.678Z,10.30
2023-04-12T07:21:23.904Z,10.17
2023-04-12T07:23:53.128Z,9.97
2023-04-12T07:26:22.223Z,10.47
2023-04-12T07:28:51.463Z,10.23
2023-04-12T07:31:20.802Z,10.60
2023-04-12T07:33:50.253Z,10.93
2023-04-12T07:36:22.000Z,10.70
2023-04-12T07:38:55.486Z,10.67
2023-04-12T07:41:24.939Z,9.83
2023-04-12T07:43:54.066Z,10.90
2023-04-12T07:46:23.522Z,10.67
2023-04-12T07:48:52.903Z,10.20
2023-04-12T07:51:23.651Z,10.33
2023-04-12T07:53:52.814Z,10.20
2023-04-12T07:56:22.091Z,9.90
2023-04-12T07:58:51.112Z,10.37
2023-04-12T08:01:20.369Z,10.40
2023-04-12T08:03:49.693Z,10.67
2023-04-12T08:06:19.339Z,10.13
2023-04-12T08:08:50.437Z,10.63
2023-04-12T08:11:19.719Z,10.43
2023-04-12T08:13:49.176Z,9.97
2023-04-12T08:16:18.754Z,9.67
2023-04-12T08:18:49.023Z,10.23
2023-04-12T08:21:18.317Z,10.50
2023-04-12T08:23:50.831Z,9.87
2023-04-12T08:26:20.078Z,9.37
2023-04-12T08:28:49.457Z,9.70
2023-04-12T08:31:18.904Z,9.30
2023-04-12T08:33:48.186Z,10.10
2023-04-12T08:36:17.802Z,9.37
2023-04-12T08:38:46.941Z,9.30
2023-04-12T08:41:17.804Z,9.30
2023-04-12T08:43:47.640Z,9.00
2023-04-12T08:46:17.841Z,9.00
2023-04-12T08:48:48.630Z,9.13
2023-04-12T08:51:21.072Z,9.33
2023-04-12T08:53:51.033Z,8.90
2023-04-12T08:56:23.054Z,9.33
2023-04-12T08:58:53.698Z,9.07
2023-04-12T09:01:23.051Z,8.10
2023-04-12T09:03:52.552Z,8.87
2023-04-12T09:06:21.996Z,8.63
2023-04-12T09:08:55.573Z,7.90
2023-04-12T09:11:27.406Z,8.47
2023-04-12T09:13:57.643Z,8.93
2023-04-12T09:16:38.017Z,8.53
2023-04-12T09:19:08.181Z,8.90
2023-04-12T09:21:37.935Z,8.73
2023-04-12T09:24:13.574Z,8.77
2023-04-12T09:26:44.936Z,8.27
2023-04-12T09:29:25.693Z,9.20
2023-04-12T09:32:02.987Z,8.97
2023-04-12T09:34:33.288Z,8.13
2023-04-12T09:37:14.589Z,8.10
2023-04-12T09:39:44.322Z,8.73
2023-04-12T09:42:32.572Z,8.67
2023-04-12T09:45:21.935Z,8.40
2023-04-12T09:47:51.423Z,8.93
2023-04-12T09:50:22.033Z,8.43
2023-04-12T09:52:51.446Z,8.47
2023-04-12T09:55:23.245Z,8.40
2023-04-12T09:57:55.580Z,9.00
2023-04-12T10:00:27.217Z,9.17
2023-04-12T10:02:57.696Z,8.77
2023-04-12T10:05:27.889Z,8.83
2023-04-12T10:07:59.612Z,8.83
2023-04-12T10:10:32.304Z,8.40
2023-04-12T10:13:03.261Z,8.53
2023-04-12T10:15:35.720Z,8.53
2023-04-12T10:18:09.247Z,8.83
2023-04-12T10:20:41.328Z,8.20
2023-04-12T10:23:12.179Z,8.50
2023-04-12T10:25:42.138Z,8.53
2023-04-12T10:28:18.735Z,8.70
2023-04-12T10:30:49.542Z,8.43
2023-04-12T10:33:20.031Z,8.37
2023-04-12T10:36:11.015Z,7.93
2023-04-12T10:38:47.572Z,8.37
2023-04-12T10:41:20.619Z,7.97
2023-04-12T10:43:52.523Z,8.70
2023-04-12T10:46:49.374Z,8.53
2023-04-12T10:49:19.321Z,8.90
2023-04-12T10:52:16.011Z,7.80
2023-04-12T10:54:45.140Z,8.30
2023-04-12T10:57:49.483Z,7.97
2023-04-12T11:00:22.093Z,7.70
2023-04-12T11:03:09.964Z,8.23
2023-04-12T11:06:02.674Z,8.17
2023-04-12T11:08:57.196Z,8.20
2023-04-12T11:11:29.672Z,8.00
2023-04-12T11:13:59.816Z,8.37
2023-04-12T11:16:30.406Z,8.03
2023-04-12T11:19:00.078Z,7.77
2023-04-12T11:21:30.152Z,8.10
2023-04-12T11:24:00.275Z,8.37
2023-04-12T11:26:32.232Z,8.17
2023-04-12T11:29:08.495Z,7.53
2023-04-12T11:31:40.852Z,7.60
2023-04-12T11:34:10.121Z,7.67
2023-04-12T11:36:40.328Z,7.40
2023-04-12T11:39:09.707Z,7.27
2023-04-12T11:41:38.833Z,7.63
2023-04-12T11:44:10.386Z,7.47
2023-04-12T11:46:41.379Z,7.90
2023-04-12T11:49:11.052Z,6.80
2023-04-12T11:51:40.362Z,7.03
2023-04-12T11:54:09.872Z,7.90
2023-04-12T11:56:39.448Z,7.03
2023-04-12T11:59:09.204Z,7.53
2023-04-12T12:01:40.443Z,7.43
2023-04-12T12:04:09.862Z,7.70
2023-04-12T12:06:39.500Z,7.80
2023-04-12T12:09:09.183Z,8.17
2023-04-12T12:11:38.596Z,8.00
2023-04-12T12:14:08.295Z,8.07
2023-04-12T12:16:41.307Z,8.07
2023-04-12T12:19:12.158Z,8.43
2023-04-12T12:21:41.287Z,8.10
2023-04-12T12:24:14.498Z,8.30
2023-04-12T12:26:44.600Z,7.63
2023-04-12T12:29:19.634Z,8.30
2023-04-12T12:31:49.314Z,9.00
2023-04-12T12:34:20.082Z,8.17
2023-04-12T12:36:56.600Z,8.33
2023-04-12T12:39:25.873Z,8.20
2023-04-12T12:41:56.183Z,8.13
2023-04-12T12:44:25.922Z,7.83
2023-04-12T12:47:00.735Z,8.30
2023-04-12T12:49:40.708Z,7.87
2023-04-12T12:52:10.234Z,7.90
2023-04-12T12:54:41.649Z,8.10
2023-04-12T12:57:11.094Z,7.63
2023-04-12T12:59:40.632Z,7.90
2023-04-12T13:02:10.155Z,8.10
2023-04-12T13:04:40.714Z,8.17
2023-04-12T13:07:10.029Z,8.43
2023-04-12T13:09:39.137Z,8.83
2023-04-12T13:12:08.359Z,7.60
2023-04-12T13:14:37.593Z,8.20
2023-04-12T13:17:06.772Z,8.63
2023-04-12T13:19:35.890Z,8.27
2023-04-12T13:22:07.348Z,8.10
2023-04-12T13:24:36.714Z,7.70
2023-04-12T13:27:05.989Z,8.43
2023-04-12T13:29:35.553Z,8.00
2023-04-12T13:32:05.320Z,7.80
2023-04-12T13:34:34.590Z,7.83
2023-04-12T13:37:03.895Z,7.63
2023-04-12T13:39:35.285Z,7.63
2023-04-12T13:42:04.682Z,8.00
2023-04-12T13:44:33.832Z,8.07
2023-04-12T13:47:02.873Z,7.57
2023-04-12T13:49:32.506Z,8.00
2023-04-12T13:52:02.826Z,7.73
2023-04-12T13:54:31.960Z,7.63
2023-04-12T13:57:04.133Z,7.87
2023-04-12T13:59:34.481Z,7.67
2023-04-12T14:02:04.082Z,7.83
2023-04-12T14:04:33.912Z,8.17
2023-04-12T14:07:03.277Z,7.90
2023-04-12T14:09:34.064Z,8.43
2023-04-12T14:12:04.634Z,7.97
2023-04-12T14:14:33.855Z,7.80
2023-04-12T14:17:03.305Z,7.70
2023-04-12T14:19:32.477Z,7.80
2023-04-12T14:22:02.516Z,7.97
2023-04-12T14:24:31.983Z,8.20
2023-04-12T14:27:02.413Z,7.53
2023-04-12T14:29:32.922Z,7.77
2023-04-12T14:32:02.159Z,8.60
2023-04-12T14:34:31.315Z,7.90
2023-04-12T14:37:01.312Z,7.57
2023-04-12T14:39:30.889Z,7.50
2023-04-12T14:41:59.846Z,8.53
2023-04-12T14:44:29.066Z,8.17
2023-04-12T14:46:59.536Z,8.20
2023-04-12T14:49:32.908Z,7.93
2023-04-12T14:52:02.784Z,7.83
2023-04-12T14:54:31.865Z,8.10
2023-04-12T14:57:01.091Z,7.40
2023-04-12T14:59:30.228Z,7.57
2023-04-12T15:02:00.617Z,7.73
2023-04-12T15:04:30.380Z,8.00
2023-04-12T15:06:59.582Z,8.20
2023-04-12T15:09:28.704Z,7.97
2023-04-12T15:12:01.238Z,7.70
2023-04-12T15:14:30.691Z,8.13
2023-04-12T15:17:01.801Z,7.47
2023-04-12T15:19:32.686Z,7.57
2023-04-12T15:22:02.033Z,7.77
2023-04-12T15:24:31.871Z,8.20
2023-04-12T15:27:01.906Z,8.17
2023-04-12T15:29:32.635Z,8.07
2023-04-12T15:32:03.084Z,7.97
2023-04-12T15:34:33.917Z,7.93
2023-04-12T15:37:03.144Z,7.40
2023-04-12T15:39:32.359Z,8.13
2023-04-12T15:42:02.315Z,7.40
2023-04-12T15:44:32.175Z,7.67
2023-04-12T15:47:11.064Z,7.73
2023-04-12T15:49:41.391Z,8.20
2023-04-12T15:52:10.521Z,7.90
2023-04-12T15:54:43.770Z,7.87
2023-04-12T15:57:13.336Z,7.93
2023-04-12T15:59:42.994Z,8.37
2023-04-12T16:02:13.904Z,8.50
2023-04-12T16:04:44.549Z,7.60
2023-04-12T16:07:14.711Z,8.40
2023-04-12T16:09:44.105Z,8.13
2023-04-12T16:12:13.234Z,8.83
2023-04-12T16:14:43.353Z,8.03
2023-04-12T16:17:13.715Z,7.90
2023-04-12T16:19:43.019Z,8.47
2023-04-12T16:22:12.548Z,8.57
2023-04-12T16:24:41.712Z,8.87
2023-04-12T16:27:10.992Z,8.33
2023-04-12T16:29:40.340Z,8.77
2023-04-12T16:32:09.769Z,8.67
2023-04-12T16:34:41.347Z,8.63
2023-04-12T16:37:10.552Z,8.23
2023-04-12T16:39:39.625Z,9.03
2023-04-12T16:42:09.459Z,8.47
2023-04-12T16:44:38.744Z,8.20
2023-04-12T16:47:09.524Z,8.80
2023-04-12T16:49:40.189Z,8.50
2023-04-12T16:52:09.871Z,8.33
2023-04-12T16:54:39.060Z,8.57
2023-04-12T16:57:08.184Z,8.30
2023-04-12T16:59:39.539Z,8.10
2023-04-12T17:02:09.027Z,8.90
2023-04-12T17:04:38.098Z,8.50
2023-04-12T17:07:09.891Z,8.83
2023-04-12T17:09:39.029Z,7.80
2023-04-12T17:12:08.377Z,8.37
2023-04-12T17:14:37.662Z,8.00
2023-04-12T17:17:07.149Z,8.20
2023-04-12T17:19:36.351Z,9.37
2023-04-12T17:22:05.470Z,8.47
2023-04-12T17:24:36.146Z,8.73
2023-04-12T17:27:05.494Z,9.40
2023-04-12T17:29:34.778Z,8.70
2023-04-12T17:32:04.397Z,8.60
2023-04-12T17:34:33.864Z,8.33
2023-04-12T17:37:04.326Z,9.03
2023-04-12T17:39:34.830Z,8.70
2023-04-12T17:42:04.292Z,11.30
2023-04-12T17:44:33.368Z,8.43
2023-04-12T17:47:02.470Z,7.17
2023-04-12T17:49:32.631Z,7.63
2023-04-12T17:52:01.945Z,6.83
2023-04-12T17:54:31.618Z,7.40
2023-04-12T17:57:02.404Z,7.10
2023-04-12T17:59:31.913Z,7.27
2023-04-12T18:02:02.209Z,7.03
2023-04-12T18:04:32.031Z,7.53
2023-04-12T18:07:01.396Z,6.97
2023-04-12T18:09:30.622Z,7.27
2023-04-12T18:12:01.364Z,7.80
2023-04-12T18:14:31.110Z,7.43
2023-04-12T18:17:00.222Z,7.17
2023-04-12T18:19:30.240Z,7.57
2023-04-12T18:22:00.279Z,8.10
2023-04-12T18:24:32.972Z,7.90
2023-04-12T18:27:05.304Z,7.60
2023-04-12T18:29:34.709Z,8.30
2023-04-12T18:32:03.897Z,8.63
2023-04-12T18:34:33.085Z,8.53
2023-04-12T18:37:04.175Z,7.83
2023-04-12T18:39:34.626Z,7.57
2023-04-12T18:42:05.192Z,7.30
2023-04-12T18:44:34.343Z,7.20
2023-04-12T18:47:03.480Z,7.63
2023-04-12T18:49:34.882Z,7.80
2023-04-12T18:52:03.791Z,8.47
2023-04-12T18:54:32.678Z,9.50
2023-04-12T18:57:03.445Z,9.87
2023-04-12T18:59:33.928Z,8.57
2023-04-12T19:02:03.691Z,9.30
2023-04-12T19:04:32.970Z,8.50
2023-04-12T19:07:02.510Z,9.53
2023-04-12T19:09:31.942Z,10.83
2023-04-12T19:12:01.259Z,9.83
2023-04-12T19:14:31.092Z,10.50
2023-04-12T19:17:02.520Z,10.90
2023-04-12T19:19:31.759Z,10.10
2023-04-12T19:22:01.038Z,10.30
2023-04-12T19:24:30.386Z,10.20
2023-04-12T19:26:59.838Z,10.57
2023-04-12T19:29:28.948Z,10.50
2023-04-12T19:31:58.136Z,10.40
2023-04-12T19:34:28.759Z,9.27
2023-04-12T19:36:58.068Z,9.73
2023-04-12T19:39:27.976Z,9.40
2023-04-12T19:41:57.010Z,9.20
2023-04-12T19:44:26.453Z,9.97
2023-04-12T19:46:55.358Z,9.20
2023-04-12T19:49:24.903Z,9.20
2023-04-12T19:51:55.522Z,9.07
2023-04-12T19:54:25.534Z,8.80
2023-04-12T19:56:55.224Z,8.97
2023-04-12T19:59:26.707Z,8.43
2023-04-12T20:01:58.101Z,8.53
2023-04-12T20:04:27.516Z,8.60
2023-04-12T20:06:57.958Z,8.47
2023-04-12T20:09:27.491Z,7.73
2023-04-12T20:11:57.276Z,7.83
2023-04-12T20:14:27.128Z,8.00
2023-04-12T20:16:56.884Z,7.93
2023-04-12T20:19:28.188Z,7.50
2023-04-12T20:22:01.920Z,7.87
2023-04-12T20:24:34.329Z,7.43
2023-04-12T20:27:04.361Z,7.70
2023-04-12T20:29:36.143Z,7.37
2023-04-12T20:32:05.424Z,6.93
2023-04-12T20:34:34.371Z,6.93
2023-04-12T20:37:05.196Z,7.40
2023-04-12T20:39:34.255Z,7.03
2023-04-12T20:42:03.494Z,7.77
2023-04-12T20:44:32.603Z,7.33
2023-04-12T20:47:02.647Z,7.57
2023-04-12T20:49:33.173Z,7.73
2023-04-12T20:52:02.360Z,7.37
2023-04-12T20:54:33.935Z,8.00
2023-04-12T20:57:04.170Z,8.23
2023-04-12T20:59:36.131Z,7.67
2023-04-12T21:02:05.719Z,7.93
2023-04-12T21:04:36.462Z,7.67
2023-04-12T21:07:06.022Z,7.23
2023-04-12T21:09:36.856Z,7.77
2023-04-12T21:12:08.543Z,7.60
2023-04-12T21:14:39.273Z,7.40
2023-04-12T21:17:09.113Z,7.43
2023-04-12T21:19:40.989Z,7.97
2023-04-12T21:22:10.102Z,7.77
2023-04-12T21:24:40.543Z,8.27
2023-04-12T21:27:09.880Z,8.33
2023-04-12T21:29:41.719Z,7.80
2023-04-12T21:32:11.077Z,8.17
2023-04-12T21:34:40.371Z,9.03
2023-04-12T21:37:09.629Z,7.37
2023-04-12T21:39:40.490Z,8.13
2023-04-12T21:42:09.669Z,8.60
2023-04-12T21:44:39.614Z,7.77
2023-04-12T21:47:08.824Z,8.63
2023-04-12T21:49:38.202Z,8.37
2023-04-12T21:52:07.977Z,8.10
2023-04-12T21:54:37.320Z,8.50
2023-04-12T21:57:07.743Z,7.53
2023-04-12T21:59:36.943Z,8.23
2023-04-12T22:02:06.377Z,7.80
2023-04-12T22:04:35.971Z,7.87
2023-04-12T22:07:06.779Z,8.57
2023-04-12T22:09:36.220Z,7.73
2023-04-12T22:12:07.620Z,9.07
2023-04-12T22:14:37.064Z,9.27
2023-04-12T22:17:06.757Z,9.00
2023-04-12T22:19:36.165Z,8.80
2023-04-12T22:22:05.423Z,8.60
2023-04-12T22:24:36.334Z,8.67
2023-04-12T22:27:07.830Z,9.07
2023-04-12T22:29:37.649Z,8.80
2023-04-12T22:32:07.199Z,8.83
2023-04-12T22:34:37.276Z,8.80
2023-04-12T22:37:08.593Z,8.80
2023-04-12T22:39:38.025Z,8.60
2023-04-12T22:42:08.693Z,8.10
2023-04-12T22:44:39.888Z,8.30
2023-04-12T22:47:08.997Z,8.13
2023-04-12T22:49:46.305Z,8.43
2023-04-12T22:52:16.198Z,8.83
2023-04-12T22:54:48.028Z,9.37
2023-04-12T22:57:18.592Z,8.80
2023-04-12T22:59:47.502Z,8.83
2023-04-12T23:02:16.983Z,8.87
2023-04-12T23:04:49.219Z,8.97
2023-04-12T23:07:18.535Z,8.63
2023-04-12T23:09:47.511Z,8.17
2023-04-12T23:12:17.954Z,7.97
2023-04-12T23:14:46.816Z,8.43
2023-04-12T23:17:16.848Z,8.17
2023-04-12T23:19:46.190Z,8.50
2023-04-12T23:22:22.625Z,8.17
2023-04-12T23:24:51.830Z,7.80
2023-04-12T23:27:22.638Z,7.57
2023-04-12T23:29:51.904Z,7.90
2023-04-12T23:32:21.722Z,8.03
2023-04-12T23:34:52.751Z,7.73
2023-04-12T23:37:23.318Z,8.30
2023-04-12T23:39:52.564Z,8.10
2023-04-12T23:42:23.256Z,7.70
2023-04-12T23:44:53.437Z,7.93
2023-04-12T23:47:22.805Z,7.67
2023-04-12T23:49:52.103Z,7.17
2023-04-12T23:52:21.164Z,7.80
2023-04-12T23:54:50.386Z,7.80
2023-04-12T23:57:19.532Z,7.80
2023-04-12T23:59:50.130Z,7.63
